sensor_id;sensor_type;location;lat;lon;timestamp;temperature;humidity
49373;DHT22;44113;38.408;-122.974;2022-10-16T00:01:10;18.80;69.00
49373;DHT22;44113;38.408;-122.974;2022-10-16T00:03:38;18.80;68.80
49373;DHT22;44113;38.408;-122.974;2022-10-16T00:06:05;18.80;69.00
49373;DHT22;44113;38.408;-122.974;2022-10-16T00:08:34;18.80;69.60
49373;DHT22;44113;38.408;-122.974;2022-10-16T00:11:07;18.80;69.40
49373;DHT22;44113;38.408;-122.974;2022-10-16T00:13:36;18.80;69.20
49373;DHT22;44113;38.408;-122.974;2022-10-16T00:16:03;18.80;69.10
49373;DHT22;44113;38.408;-122.974;2022-10-16T00:18:30;18.70;69.20
49373;DHT22;44113;38.408;-122.974;2022-10-16T00:21:03;18.70;69.30
49373;DHT22;44113;38.408;-122.974;2022-10-16T00:23:31;18.60;69.30
49373;DHT22;44113;38.408;-122.974;2022-10-16T00:25:59;18.70;69.20
49373;DHT22;44113;38.408;-122.974;2022-10-16T00:28:27;18.80;69.20
49373;DHT22;44113;38.408;-122.974;2022-10-16T00:30:54;18.80;68.90
49373;DHT22;44113;38.408;-122.974;2022-10-16T00:33:22;18.80;68.80
49373;DHT22;44113;38.408;-122.974;2022-10-16T00:35:49;18.80;68.70
49373;DHT22;44113;38.408;-122.974;2022-10-16T00:38:16;18.80;68.70
49373;DHT22;44113;38.408;-122.974;2022-10-16T00:40:43;18.80;68.60
49373;DHT22;44113;38.408;-122.974;2022-10-16T00:45:59;18.80;68.80
49373;DHT22;44113;38.408;-122.974;2022-10-16T00:48:26;18.80;68.80
49373;DHT22;44113;38.408;-122.974;2022-10-16T00:50:52;18.80;68.80
49373;DHT22;44113;38.408;-122.974;2022-10-16T00:53:19;18.70;68.60
49373;DHT22;44113;38.408;-122.974;2022-10-16T00:55:46;18.70;68.60
49373;DHT22;44113;38.408;-122.974;2022-10-16T00:58:13;18.70;68.40
49373;DHT22;44113;38.408;-122.974;2022-10-16T01:00:39;18.70;68.40
49373;DHT22;44113;38.408;-122.974;2022-10-16T01:03:23;18.70;68.30
49373;DHT22;44113;38.408;-122.974;2022-10-16T01:06:00;18.80;68.20
49373;DHT22;44113;38.408;-122.974;2022-10-16T01:08:44;18.80;68.10
49373;DHT22;44113;38.408;-122.974;2022-10-16T01:11:28;18.70;67.90
49373;DHT22;44113;38.408;-122.974;2022-10-16T01:14:02;18.70;68.10
49373;DHT22;44113;38.408;-122.974;2022-10-16T01:16:34;18.70;68.10
49373;DHT22;44113;38.408;-122.974;2022-10-16T01:19:12;18.70;68.00
49373;DHT22;44113;38.408;-122.974;2022-10-16T01:21:43;18.70;68.00
49373;DHT22;44113;38.408;-122.974;2022-10-16T01:24:44;18.60;68.00
49373;DHT22;44113;38.408;-122.974;2022-10-16T01:27:26;18.60;68.00
49373;DHT22;44113;38.408;-122.974;2022-10-16T01:30:04;18.60;68.10
49373;DHT22;44113;38.408;-122.974;2022-10-16T01:32:41;18.70;68.00
49373;DHT22;44113;38.408;-122.974;2022-10-16T01:35:17;18.70;68.00
49373;DHT22;44113;38.408;-122.974;2022-10-16T01:38:05;18.70;67.80
49373;DHT22;44113;38.408;-122.974;2022-10-16T01:40:36;18.70;67.80
49373;DHT22;44113;38.408;-122.974;2022-10-16T01:43:17;18.70;67.70
49373;DHT22;44113;38.408;-122.974;2022-10-16T01:45:45;18.60;67.70
49373;DHT22;44113;38.408;-122.974;2022-10-16T01:48:15;18.60;67.80
49373;DHT22;44113;38.408;-122.974;2022-10-16T01:50:44;18.60;67.80
49373;DHT22;44113;38.408;-122.974;2022-10-16T01:53:16;18.60;67.90
49373;DHT22;44113;38.408;-122.974;2022-10-16T01:55:45;18.60;68.00
49373;DHT22;44113;38.408;-122.974;2022-10-16T01:58:14;18.60;68.00
49373;DHT22;44113;38.408;-122.974;2022-10-16T02:00:44;18.60;68.20
49373;DHT22;44113;38.408;-122.974;2022-10-16T02:03:15;18.50;68.20
49373;DHT22;44113;38.408;-122.974;2022-10-16T02:08:09;18.60;68.30
49373;DHT22;44113;38.408;-122.974;2022-10-16T02:10:36;18.60;68.20
49373;DHT22;44113;38.408;-122.974;2022-10-16T02:13:17;18.60;68.10
49373;DHT22;44113;38.408;-122.974;2022-10-16T02:15:46;18.60;68.00
49373;DHT22;44113;38.408;-122.974;2022-10-16T02:18:12;18.60;68.00
49373;DHT22;44113;38.408;-122.974;2022-10-16T02:21:01;18.60;68.00
49373;DHT22;44113;38.408;-122.974;2022-10-16T02:23:48;18.50;68.00
49373;DHT22;44113;38.408;-122.974;2022-10-16T02:26:27;18.50;68.00
49373;DHT22;44113;38.408;-122.974;2022-10-16T02:29:00;18.50;68.10
49373;DHT22;44113;38.408;-122.974;2022-10-16T02:31:28;18.50;68.10
49373;DHT22;44113;38.408;-122.974;2022-10-16T02:33:59;18.50;68.20
49373;DHT22;44113;38.408;-122.974;2022-10-16T02:36:26;18.50;68.20
49373;DHT22;44113;38.408;-122.974;2022-10-16T02:38:53;18.50;68.00
49373;DHT22;44113;38.408;-122.974;2022-10-16T02:41:21;18.50;68.00
49373;DHT22;44113;38.408;-122.974;2022-10-16T02:43:48;18.50;67.90
49373;DHT22;44113;38.408;-122.974;2022-10-16T02:46:16;18.50;67.90
49373;DHT22;44113;38.408;-122.974;2022-10-16T02:48:43;18.50;67.90
49373;DHT22;44113;38.408;-122.974;2022-10-16T02:51:09;18.50;67.90
49373;DHT22;44113;38.408;-122.974;2022-10-16T02:53:35;18.50;67.80
49373;DHT22;44113;38.408;-122.974;2022-10-16T02:56:02;18.50;67.80
49373;DHT22;44113;38.408;-122.974;2022-10-16T02:58:28;18.50;67.80
49373;DHT22;44113;38.408;-122.974;2022-10-16T03:00:55;18.40;67.80
49373;DHT22;44113;38.408;-122.974;2022-10-16T03:03:22;18.40;67.90
49373;DHT22;44113;38.408;-122.974;2022-10-16T03:05:49;18.40;67.90
49373;DHT22;44113;38.408;-122.974;2022-10-16T03:08:15;18.40;67.90
49373;DHT22;44113;38.408;-122.974;2022-10-16T03:10:42;18.40;67.80
49373;DHT22;44113;38.408;-122.974;2022-10-16T03:13:08;18.40;67.80
49373;DHT22;44113;38.408;-122.974;2022-10-16T03:15:35;18.40;67.80
49373;DHT22;44113;38.408;-122.974;2022-10-16T03:18:01;18.40;67.70
49373;DHT22;44113;38.408;-122.974;2022-10-16T03:20:27;18.40;67.60
49373;DHT22;44113;38.408;-122.974;2022-10-16T03:22:54;18.40;67.50
49373;DHT22;44113;38.408;-122.974;2022-10-16T03:25:20;18.40;67.60
49373;DHT22;44113;38.408;-122.974;2022-10-16T03:27:47;18.40;67.50
49373;DHT22;44113;38.408;-122.974;2022-10-16T03:30:14;18.40;67.80
49373;DHT22;44113;38.408;-122.974;2022-10-16T03:32:41;18.40;67.70
49373;DHT22;44113;38.408;-122.974;2022-10-16T03:35:08;18.40;67.70
49373;DHT22;44113;38.408;-122.974;2022-10-16T03:37:34;18.40;67.70
49373;DHT22;44113;38.408;-122.974;2022-10-16T03:40:01;18.40;67.70
49373;DHT22;44113;38.408;-122.974;2022-10-16T03:42:28;18.30;67.70
49373;DHT22;44113;38.408;-122.974;2022-10-16T03:44:54;18.40;67.70
49373;DHT22;44113;38.408;-122.974;2022-10-16T03:47:21;18.40;67.70
49373;DHT22;44113;38.408;-122.974;2022-10-16T03:49:50;18.40;67.60
49373;DHT22;44113;38.408;-122.974;2022-10-16T03:52:16;18.40;67.80
49373;DHT22;44113;38.408;-122.974;2022-10-16T03:54:43;18.40;67.60
49373;DHT22;44113;38.408;-122.974;2022-10-16T03:57:10;18.40;67.50
49373;DHT22;44113;38.408;-122.974;2022-10-16T03:59:36;18.40;67.50
49373;DHT22;44113;38.408;-122.974;2022-10-16T04:02:03;18.40;68.00
49373;DHT22;44113;38.408;-122.974;2022-10-16T04:04:29;18.40;67.60
49373;DHT22;44113;38.408;-122.974;2022-10-16T04:06:56;18.40;67.50
49373;DHT22;44113;38.408;-122.974;2022-10-16T04:09:22;18.40;67.60
49373;DHT22;44113;38.408;-122.974;2022-10-16T04:11:49;18.40;67.50
49373;DHT22;44113;38.408;-122.974;2022-10-16T04:14:16;18.40;67.50
49373;DHT22;44113;38.408;-122.974;2022-10-16T04:16:43;18.50;67.60
49373;DHT22;44113;38.408;-122.974;2022-10-16T04:19:10;18.50;67.50
49373;DHT22;44113;38.408;-122.974;2022-10-16T04:21:37;18.50;67.60
49373;DHT22;44113;38.408;-122.974;2022-10-16T04:24:03;18.50;67.60
49373;DHT22;44113;38.408;-122.974;2022-10-16T04:26:30;18.50;67.50
49373;DHT22;44113;38.408;-122.974;2022-10-16T04:28:56;18.50;67.50
49373;DHT22;44113;38.408;-122.974;2022-10-16T04:31:23;18.50;67.50
49373;DHT22;44113;38.408;-122.974;2022-10-16T04:33:49;18.50;67.50
49373;DHT22;44113;38.408;-122.974;2022-10-16T04:36:16;18.50;67.50
49373;DHT22;44113;38.408;-122.974;2022-10-16T04:38:42;18.50;67.50
49373;DHT22;44113;38.408;-122.974;2022-10-16T04:41:08;18.50;67.60
49373;DHT22;44113;38.408;-122.974;2022-10-16T04:43:35;18.50;67.70
49373;DHT22;44113;38.408;-122.974;2022-10-16T04:46:02;18.50;67.70
49373;DHT22;44113;38.408;-122.974;2022-10-16T04:48:31;18.50;67.80
49373;DHT22;44113;38.408;-122.974;2022-10-16T04:50:57;18.50;67.70
49373;DHT22;44113;38.408;-122.974;2022-10-16T04:53:24;18.50;67.70
49373;DHT22;44113;38.408;-122.974;2022-10-16T04:55:50;18.50;67.80
49373;DHT22;44113;38.408;-122.974;2022-10-16T04:58:17;18.50;67.70
49373;DHT22;44113;38.408;-122.974;2022-10-16T05:00:44;18.50;67.60
49373;DHT22;44113;38.408;-122.974;2022-10-16T05:03:13;18.60;67.60
49373;DHT22;44113;38.408;-122.974;2022-10-16T05:05:43;18.50;67.60
49373;DHT22;44113;38.408;-122.974;2022-10-16T05:08:11;18.50;67.70
49373;DHT22;44113;38.408;-122.974;2022-10-16T05:10:38;18.50;67.70
49373;DHT22;44113;38.408;-122.974;2022-10-16T05:13:04;18.50;67.70
49373;DHT22;44113;38.408;-122.974;2022-10-16T05:15:30;18.50;67.80
49373;DHT22;44113;38.408;-122.974;2022-10-16T05:17:57;18.50;67.80
49373;DHT22;44113;38.408;-122.974;2022-10-16T05:20:23;18.50;67.80
49373;DHT22;44113;38.408;-122.974;2022-10-16T05:22:50;18.50;67.80
49373;DHT22;44113;38.408;-122.974;2022-10-16T05:25:16;18.40;67.80
49373;DHT22;44113;38.408;-122.974;2022-10-16T05:27:43;18.50;67.70
49373;DHT22;44113;38.408;-122.974;2022-10-16T05:30:09;18.50;67.80
49373;DHT22;44113;38.408;-122.974;2022-10-16T05:32:36;18.50;67.60
49373;DHT22;44113;38.408;-122.974;2022-10-16T05:35:02;18.50;67.60
49373;DHT22;44113;38.408;-122.974;2022-10-16T05:37:29;18.50;67.60
49373;DHT22;44113;38.408;-122.974;2022-10-16T05:39:55;18.50;67.60
49373;DHT22;44113;38.408;-122.974;2022-10-16T05:42:21;18.40;67.60
49373;DHT22;44113;38.408;-122.974;2022-10-16T05:44:48;18.40;67.70
49373;DHT22;44113;38.408;-122.974;2022-10-16T05:47:14;18.40;67.80
49373;DHT22;44113;38.408;-122.974;2022-10-16T05:49:42;18.40;67.70
49373;DHT22;44113;38.408;-122.974;2022-10-16T05:52:08;18.40;67.80
49373;DHT22;44113;38.408;-122.974;2022-10-16T05:54:34;18.40;67.80
49373;DHT22;44113;38.408;-122.974;2022-10-16T05:57:01;18.40;67.90
49373;DHT22;44113;38.408;-122.974;2022-10-16T05:59:28;18.40;68.50
49373;DHT22;44113;38.408;-122.974;2022-10-16T06:01:54;18.50;67.80
49373;DHT22;44113;38.408;-122.974;2022-10-16T06:04:20;18.50;67.90
49373;DHT22;44113;38.408;-122.974;2022-10-16T06:06:47;18.50;67.80
49373;DHT22;44113;38.408;-122.974;2022-10-16T06:09:14;18.50;67.60
49373;DHT22;44113;38.408;-122.974;2022-10-16T06:11:40;18.50;67.80
49373;DHT22;44113;38.408;-122.974;2022-10-16T06:14:08;18.50;67.80
49373;DHT22;44113;38.408;-122.974;2022-10-16T06:16:36;18.50;68.00
49373;DHT22;44113;38.408;-122.974;2022-10-16T06:19:03;18.40;67.90
49373;DHT22;44113;38.408;-122.974;2022-10-16T06:21:32;18.40;67.90
49373;DHT22;44113;38.408;-122.974;2022-10-16T06:23:59;18.40;67.90
49373;DHT22;44113;38.408;-122.974;2022-10-16T06:26:28;18.40;68.50
49373;DHT22;44113;38.408;-122.974;2022-10-16T06:28:56;18.40;67.90
49373;DHT22;44113;38.408;-122.974;2022-10-16T06:31:22;18.40;68.10
49373;DHT22;44113;38.408;-122.974;2022-10-16T06:33:53;18.40;67.90
49373;DHT22;44113;38.408;-122.974;2022-10-16T06:36:20;18.40;68.00
49373;DHT22;44113;38.408;-122.974;2022-10-16T06:38:48;18.50;67.80
49373;DHT22;44113;38.408;-122.974;2022-10-16T06:41:17;18.50;67.90
49373;DHT22;44113;38.408;-122.974;2022-10-16T06:43:46;18.50;67.80
49373;DHT22;44113;38.408;-122.974;2022-10-16T06:46:15;18.50;67.90
49373;DHT22;44113;38.408;-122.974;2022-10-16T06:48:42;18.60;67.60
49373;DHT22;44113;38.408;-122.974;2022-10-16T06:53:43;18.40;68.00
49373;DHT22;44113;38.408;-122.974;2022-10-16T06:56:14;18.40;68.00
49373;DHT22;44113;38.408;-122.974;2022-10-16T06:58:42;18.40;68.10
49373;DHT22;44113;38.408;-122.974;2022-10-16T07:01:10;18.40;68.10
49373;DHT22;44113;38.408;-122.974;2022-10-16T07:03:38;18.40;68.30
49373;DHT22;44113;38.408;-122.974;2022-10-16T07:06:08;18.40;68.20
49373;DHT22;44113;38.408;-122.974;2022-10-16T07:08:36;18.40;68.10
49373;DHT22;44113;38.408;-122.974;2022-10-16T07:11:05;18.50;68.00
49373;DHT22;44113;38.408;-122.974;2022-10-16T07:13:36;18.40;67.90
49373;DHT22;44113;38.408;-122.974;2022-10-16T07:16:13;18.50;67.90
49373;DHT22;44113;38.408;-122.974;2022-10-16T07:18:40;18.50;68.00
49373;DHT22;44113;38.408;-122.974;2022-10-16T07:21:10;18.50;68.00
49373;DHT22;44113;38.408;-122.974;2022-10-16T07:23:38;18.40;67.90
49373;DHT22;44113;38.408;-122.974;2022-10-16T07:26:05;18.40;68.10
49373;DHT22;44113;38.408;-122.974;2022-10-16T07:28:33;18.40;68.00
49373;DHT22;44113;38.408;-122.974;2022-10-16T07:31:04;18.40;68.10
49373;DHT22;44113;38.408;-122.974;2022-10-16T07:33:32;18.40;68.10
49373;DHT22;44113;38.408;-122.974;2022-10-16T07:35:58;18.40;68.10
49373;DHT22;44113;38.408;-122.974;2022-10-16T07:38:26;18.40;68.20
49373;DHT22;44113;38.408;-122.974;2022-10-16T07:41:02;18.40;68.10
49373;DHT22;44113;38.408;-122.974;2022-10-16T07:43:29;18.40;68.00
49373;DHT22;44113;38.408;-122.974;2022-10-16T07:45:56;18.50;68.00
49373;DHT22;44113;38.408;-122.974;2022-10-16T07:48:24;18.50;67.90
49373;DHT22;44113;38.408;-122.974;2022-10-16T07:50:52;18.50;67.90
49373;DHT22;44113;38.408;-122.974;2022-10-16T07:53:20;18.40;67.90
49373;DHT22;44113;38.408;-122.974;2022-10-16T07:55:46;18.40;68.10
49373;DHT22;44113;38.408;-122.974;2022-10-16T07:58:13;18.40;68.00
49373;DHT22;44113;38.408;-122.974;2022-10-16T08:00:40;18.40;67.90
49373;DHT22;44113;38.408;-122.974;2022-10-16T08:03:07;18.40;68.10
49373;DHT22;44113;38.408;-122.974;2022-10-16T08:05:34;18.40;68.10
49373;DHT22;44113;38.408;-122.974;2022-10-16T08:08:02;18.40;68.00
49373;DHT22;44113;38.408;-122.974;2022-10-16T08:10:29;18.40;68.30
49373;DHT22;44113;38.408;-122.974;2022-10-16T08:12:57;18.40;68.70
49373;DHT22;44113;38.408;-122.974;2022-10-16T08:15:25;18.40;68.00
49373;DHT22;44113;38.408;-122.974;2022-10-16T08:18:02;18.50;68.00
49373;DHT22;44113;38.408;-122.974;2022-10-16T08:20:30;18.50;68.00
49373;DHT22;44113;38.408;-122.974;2022-10-16T08:22:57;18.50;67.90
49373;DHT22;44113;38.408;-122.974;2022-10-16T08:25:24;18.40;68.00
49373;DHT22;44113;38.408;-122.974;2022-10-16T08:27:51;18.40;69.00
49373;DHT22;44113;38.408;-122.974;2022-10-16T08:30:19;18.50;69.80
49373;DHT22;44113;38.408;-122.974;2022-10-16T08:32:46;18.50;69.10
49373;DHT22;44113;38.408;-122.974;2022-10-16T08:35:13;18.60;68.70
49373;DHT22;44113;38.408;-122.974;2022-10-16T08:37:41;18.60;68.40
49373;DHT22;44113;38.408;-122.974;2022-10-16T08:40:18;18.60;68.50
49373;DHT22;44113;38.408;-122.974;2022-10-16T08:45:48;18.60;68.40
49373;DHT22;44113;38.408;-122.974;2022-10-16T08:50:52;18.70;68.40
49373;DHT22;44113;38.408;-122.974;2022-10-16T08:54:10;18.70;68.30
49373;DHT22;44113;38.408;-122.974;2022-10-16T08:56:15;18.70;68.30
49373;DHT22;44113;38.408;-122.974;2022-10-16T08:58:44;18.70;68.20
49373;DHT22;44113;38.408;-122.974;2022-10-16T09:01:14;18.60;68.20
49373;DHT22;44113;38.408;-122.974;2022-10-16T09:04:04;18.70;68.20
49373;DHT22;44113;38.408;-122.974;2022-10-16T09:17:33;18.60;68.20
49373;DHT22;44113;38.408;-122.974;2022-10-16T09:23:15;18.70;68.30
49373;DHT22;44113;38.408;-122.974;2022-10-16T09:25:48;18.70;68.20
49373;DHT22;44113;38.408;-122.974;2022-10-16T09:28:16;18.70;68.30
49373;DHT22;44113;38.408;-122.974;2022-10-16T09:30:43;18.60;68.30
49373;DHT22;44113;38.408;-122.974;2022-10-16T09:33:12;18.60;68.30
49373;DHT22;44113;38.408;-122.974;2022-10-16T09:35:50;18.60;68.30
49373;DHT22;44113;38.408;-122.974;2022-10-16T09:38:35;18.60;68.30
49373;DHT22;44113;38.408;-122.974;2022-10-16T09:41:36;18.60;68.30
49373;DHT22;44113;38.408;-122.974;2022-10-16T09:44:04;18.60;68.40
49373;DHT22;44113;38.408;-122.974;2022-10-16T09:46:34;18.60;68.40
49373;DHT22;44113;38.408;-122.974;2022-10-16T09:49:03;18.50;68.40
49373;DHT22;44113;38.408;-122.974;2022-10-16T09:51:37;18.60;68.40
49373;DHT22;44113;38.408;-122.974;2022-10-16T09:54:14;18.50;68.30
49373;DHT22;44113;38.408;-122.974;2022-10-16T09:56:41;18.60;68.30
49373;DHT22;44113;38.408;-122.974;2022-10-16T09:59:22;18.60;68.20
49373;DHT22;44113;38.408;-122.974;2022-10-16T10:01:54;18.60;68.20
49373;DHT22;44113;38.408;-122.974;2022-10-16T10:04:23;18.60;68.10
49373;DHT22;44113;38.408;-122.974;2022-10-16T10:06:56;18.60;68.20
49373;DHT22;44113;38.408;-122.974;2022-10-16T10:12:03;18.60;68.20
49373;DHT22;44113;38.408;-122.974;2022-10-16T10:14:56;18.50;68.20
49373;DHT22;44113;38.408;-122.974;2022-10-16T10:17:24;18.50;68.20
49373;DHT22;44113;38.408;-122.974;2022-10-16T10:19:57;18.50;68.20
49373;DHT22;44113;38.408;-122.974;2022-10-16T10:22:30;18.50;68.20
49373;DHT22;44113;38.408;-122.974;2022-10-16T10:33:16;18.50;68.10
49373;DHT22;44113;38.408;-122.974;2022-10-16T10:38:41;18.50;68.10
49373;DHT22;44113;38.408;-122.974;2022-10-16T10:44:30;18.50;68.20
49373;DHT22;44113;38.408;-122.974;2022-10-16T10:47:22;18.50;68.20
49373;DHT22;44113;38.408;-122.974;2022-10-16T10:55:20;18.40;68.10
49373;DHT22;44113;38.408;-122.974;2022-10-16T10:58:03;18.40;68.20
49373;DHT22;44113;38.408;-122.974;2022-10-16T11:06:55;18.40;68.00
49373;DHT22;44113;38.408;-122.974;2022-10-16T11:09:25;18.50;68.00
49373;DHT22;44113;38.408;-122.974;2022-10-16T11:12:39;18.40;68.10
49373;DHT22;44113;38.408;-122.974;2022-10-16T11:15:29;18.40;68.10
49373;DHT22;44113;38.408;-122.974;2022-10-16T11:18:08;18.40;68.10
49373;DHT22;44113;38.408;-122.974;2022-10-16T11:20:40;18.40;68.10
49373;DHT22;44113;38.408;-122.974;2022-10-16T11:23:29;18.40;68.20
49373;DHT22;44113;38.408;-122.974;2022-10-16T11:26:01;18.40;68.20
49373;DHT22;44113;38.408;-122.974;2022-10-16T11:28:50;18.40;68.20
49373;DHT22;44113;38.408;-122.974;2022-10-16T11:31:40;18.40;68.20
49373;DHT22;44113;38.408;-122.974;2022-10-16T11:34:41;18.40;68.10
49373;DHT22;44113;38.408;-122.974;2022-10-16T11:39:46;18.40;68.00
49373;DHT22;44113;38.408;-122.974;2022-10-16T11:45:24;18.40;68.00
49373;DHT22;44113;38.408;-122.974;2022-10-16T11:48:01;18.40;68.10
49373;DHT22;44113;38.408;-122.974;2022-10-16T11:50:45;18.40;68.10
49373;DHT22;44113;38.408;-122.974;2022-10-16T11:53:58;18.40;68.10
49373;DHT22;44113;38.408;-122.974;2022-10-16T11:56:04;18.30;68.60
49373;DHT22;44113;38.408;-122.974;2022-10-16T11:58:41;18.30;68.00
49373;DHT22;44113;38.408;-122.974;2022-10-16T12:04:46;18.30;68.10
49373;DHT22;44113;38.408;-122.974;2022-10-16T12:07:27;18.30;68.00
49373;DHT22;44113;38.408;-122.974;2022-10-16T12:10:23;18.40;68.00
49373;DHT22;44113;38.408;-122.974;2022-10-16T12:12:50;18.40;67.90
49373;DHT22;44113;38.408;-122.974;2022-10-16T12:15:22;18.40;68.00
49373;DHT22;44113;38.408;-122.974;2022-10-16T12:17:49;18.30;67.90
49373;DHT22;44113;38.408;-122.974;2022-10-16T12:20:23;18.30;68.00
49373;DHT22;44113;38.408;-122.974;2022-10-16T12:22:54;18.30;68.00
49373;DHT22;44113;38.408;-122.974;2022-10-16T12:30:30;18.30;68.00
49373;DHT22;44113;38.408;-122.974;2022-10-16T12:33:06;18.20;67.90
49373;DHT22;44113;38.408;-122.974;2022-10-16T12:35:46;18.20;67.90
49373;DHT22;44113;38.408;-122.974;2022-10-16T12:38:21;18.30;67.90
49373;DHT22;44113;38.408;-122.974;2022-10-16T12:43:45;18.30;67.70
49373;DHT22;44113;38.408;-122.974;2022-10-16T12:48:43;18.30;67.90
49373;DHT22;44113;38.408;-122.974;2022-10-16T13:21:26;18.30;67.80
49373;DHT22;44113;38.408;-122.974;2022-10-16T13:27:20;18.20;67.80
49373;DHT22;44113;38.408;-122.974;2022-10-16T13:30:00;18.20;67.90
49373;DHT22;44113;38.408;-122.974;2022-10-16T13:32:27;18.20;67.90
49373;DHT22;44113;38.408;-122.974;2022-10-16T13:34:53;18.20;68.00
49373;DHT22;44113;38.408;-122.974;2022-10-16T13:37:22;18.20;67.90
49373;DHT22;44113;38.408;-122.974;2022-10-16T13:39:49;18.20;67.90
49373;DHT22;44113;38.408;-122.974;2022-10-16T13:42:26;18.10;67.80
49373;DHT22;44113;38.408;-122.974;2022-10-16T13:44:55;18.20;67.70
49373;DHT22;44113;38.408;-122.974;2022-10-16T13:47:27;18.20;67.60
49373;DHT22;44113;38.408;-122.974;2022-10-16T13:50:14;18.20;67.50
49373;DHT22;44113;38.408;-122.974;2022-10-16T13:52:42;18.20;67.60
49373;DHT22;44113;38.408;-122.974;2022-10-16T13:55:12;18.20;67.60
49373;DHT22;44113;38.408;-122.974;2022-10-16T13:57:40;18.20;67.70
49373;DHT22;44113;38.408;-122.974;2022-10-16T14:00:26;18.20;67.80
49373;DHT22;44113;38.408;-122.974;2022-10-16T14:03:03;18.20;67.80
49373;DHT22;44113;38.408;-122.974;2022-10-16T14:05:30;18.20;68.40
49373;DHT22;44113;38.408;-122.974;2022-10-16T14:07:57;18.10;68.40
49373;DHT22;44113;38.408;-122.974;2022-10-16T14:10:27;18.10;67.70
49373;DHT22;44113;38.408;-122.974;2022-10-16T14:13:06;18.10;68.50
49373;DHT22;44113;38.408;-122.974;2022-10-16T14:15:35;18.20;68.00
49373;DHT22;44113;38.408;-122.974;2022-10-16T14:18:03;18.20;67.90
49373;DHT22;44113;38.408;-122.974;2022-10-16T14:20:32;18.20;67.80
49373;DHT22;44113;38.408;-122.974;2022-10-16T14:25:46;18.20;67.80
49373;DHT22;44113;38.408;-122.974;2022-10-16T14:28:22;18.20;67.90
49373;DHT22;44113;38.408;-122.974;2022-10-16T14:30:58;18.20;68.00
49373;DHT22;44113;38.408;-122.974;2022-10-16T14:33:31;18.20;68.10
49373;DHT22;44113;38.408;-122.974;2022-10-16T14:36:14;18.10;68.00
49373;DHT22;44113;38.408;-122.974;2022-10-16T14:38:54;18.10;68.00
49373;DHT22;44113;38.408;-122.974;2022-10-16T14:41:22;18.10;68.00
49373;DHT22;44113;38.408;-122.974;2022-10-16T14:43:57;18.10;67.90
49373;DHT22;44113;38.408;-122.974;2022-10-16T14:46:38;18.10;67.80
49373;DHT22;44113;38.408;-122.974;2022-10-16T14:51:39;18.10;67.70
49373;DHT22;44113;38.408;-122.974;2022-10-16T14:54:13;18.30;67.70
49373;DHT22;44113;38.408;-122.974;2022-10-16T14:56:53;18.20;67.70
49373;DHT22;44113;38.408;-122.974;2022-10-16T14:59:27;18.10;67.70
49373;DHT22;44113;38.408;-122.974;2022-10-16T15:01:55;18.10;67.70
49373;DHT22;44113;38.408;-122.974;2022-10-16T15:04:21;18.10;67.80
49373;DHT22;44113;38.408;-122.974;2022-10-16T15:06:48;18.10;67.90
49373;DHT22;44113;38.408;-122.974;2022-10-16T15:09:14;18.10;67.90
49373;DHT22;44113;38.408;-122.974;2022-10-16T15:11:41;18.10;67.80
49373;DHT22;44113;38.408;-122.974;2022-10-16T15:14:14;18.10;67.80
49373;DHT22;44113;38.408;-122.974;2022-10-16T15:16:40;18.10;67.80
49373;DHT22;44113;38.408;-122.974;2022-10-16T15:19:06;18.10;67.80
49373;DHT22;44113;38.408;-122.974;2022-10-16T15:21:33;18.10;67.80
49373;DHT22;44113;38.408;-122.974;2022-10-16T15:24:00;18.10;67.60
49373;DHT22;44113;38.408;-122.974;2022-10-16T15:26:28;18.10;67.60
49373;DHT22;44113;38.408;-122.974;2022-10-16T15:28:56;18.10;67.60
49373;DHT22;44113;38.408;-122.974;2022-10-16T15:31:22;18.10;67.60
49373;DHT22;44113;38.408;-122.974;2022-10-16T15:33:53;18.10;67.60
49373;DHT22;44113;38.408;-122.974;2022-10-16T15:36:33;18.10;67.70
49373;DHT22;44113;38.408;-122.974;2022-10-16T15:39:10;18.10;67.70
49373;DHT22;44113;38.408;-122.974;2022-10-16T15:41:38;18.10;67.90
49373;DHT22;44113;38.408;-122.974;2022-10-16T15:44:04;18.00;67.80
49373;DHT22;44113;38.408;-122.974;2022-10-16T15:46:31;18.10;67.80
49373;DHT22;44113;38.408;-122.974;2022-10-16T15:49:00;18.00;67.70
49373;DHT22;44113;38.408;-122.974;2022-10-16T15:51:27;18.00;67.70
49373;DHT22;44113;38.408;-122.974;2022-10-16T15:53:59;18.10;67.70
49373;DHT22;44113;38.408;-122.974;2022-10-16T15:56:27;18.00;67.60
49373;DHT22;44113;38.408;-122.974;2022-10-16T15:58:55;18.10;67.60
49373;DHT22;44113;38.408;-122.974;2022-10-16T16:01:21;18.10;68.00
49373;DHT22;44113;38.408;-122.974;2022-10-16T16:03:48;18.10;67.50
49373;DHT22;44113;38.408;-122.974;2022-10-16T16:06:18;18.10;67.50
49373;DHT22;44113;38.408;-122.974;2022-10-16T16:08:45;18.00;67.60
49373;DHT22;44113;38.408;-122.974;2022-10-16T16:11:14;18.10;67.70
49373;DHT22;44113;38.408;-122.974;2022-10-16T16:13:40;18.10;67.70
49373;DHT22;44113;38.408;-122.974;2022-10-16T16:16:13;18.00;67.60
49373;DHT22;44113;38.408;-122.974;2022-10-16T16:18:40;18.00;67.70
49373;DHT22;44113;38.408;-122.974;2022-10-16T16:21:07;18.00;68.20
49373;DHT22;44113;38.408;-122.974;2022-10-16T16:23:36;18.00;67.40
49373;DHT22;44113;38.408;-122.974;2022-10-16T16:28:31;18.00;67.50
49373;DHT22;44113;38.408;-122.974;2022-10-16T16:30:58;18.00;67.40
49373;DHT22;44113;38.408;-122.974;2022-10-16T16:33:24;18.10;67.40
49373;DHT22;44113;38.408;-122.974;2022-10-16T16:35:55;18.10;67.40
49373;DHT22;44113;38.408;-122.974;2022-10-16T16:38:21;18.10;67.40
49373;DHT22;44113;38.408;-122.974;2022-10-16T16:40:48;18.10;67.40
49373;DHT22;44113;38.408;-122.974;2022-10-16T16:43:14;18.00;67.50
49373;DHT22;44113;38.408;-122.974;2022-10-16T16:45:41;18.00;67.50
49373;DHT22;44113;38.408;-122.974;2022-10-16T16:48:07;18.00;67.50
49373;DHT22;44113;38.408;-122.974;2022-10-16T16:50:37;18.00;67.50
49373;DHT22;44113;38.408;-122.974;2022-10-16T16:53:04;18.00;67.60
49373;DHT22;44113;38.408;-122.974;2022-10-16T16:55:30;18.00;68.10
49373;DHT22;44113;38.408;-122.974;2022-10-16T16:57:58;18.00;67.50
49373;DHT22;44113;38.408;-122.974;2022-10-16T17:00:26;18.00;67.50
49373;DHT22;44113;38.408;-122.974;2022-10-16T17:02:52;18.00;67.40
49373;DHT22;44113;38.408;-122.974;2022-10-16T17:05:18;18.00;67.70